sensor_id;sensor_type;location;lat;lon;timestamp;pressure;altitude;pressure_sealevel;temperature;humidity
5284;BME280;15377;48.540;9.268;2022-11-15T00:00:23;97222.66;;;6.20;100.00
5284;BME280;15377;48.540;9.268;2022-11-15T00:02:48;97225.97;;;6.15;100.00
5284;BME280;15377;48.540;9.268;2022-11-15T00:05:14;97208.09;;;5.92;100.00
5284;BME280;15377;48.540;9.268;2022-11-15T00:07:39;97224.97;;;6.00;100.00
5284;BME280;15377;48.540;9.268;2022-11-15T00:10:05;97210.56;;;5.99;100.00
5284;BME280;15377;48.540;9.268;2022-11-15T00:12:30;97213.66;;;5.89;100.00
5284;BME280;15377;48.540;9.268;2022-11-15T00:14:55;97213.91;;;5.82;100.00
5284;BME280;15377;48.540;9.268;2022-11-15T00:17:21;97210.50;;;5.78;100.00
5284;BME280;15377;48.540;9.268;2022-11-15T00:19:46;97214.56;;;5.73;100.00
5284;BME280;15377;48.540;9.268;2022-11-15T00:22:11;97222.88;;;5.70;100.00
5284;BME280;15377;48.540;9.268;2022-11-15T00:24:37;97211.78;;;5.64;100.00
5284;BME280;15377;48.540;9.268;2022-11-15T00:27:02;97205.81;;;5.57;100.00
5284;BME280;15377;48.540;9.268;2022-11-15T00:29:27;97199.28;;;5.54;100.00
5284;BME280;15377;48.540;9.268;2022-11-15T00:31:53;97204.75;;;5.54;100.00
5284;BME280;15377;48.540;9.268;2022-11-15T00:34:18;97189.75;;;5.37;100.00
5284;BME280;15377;48.540;9.268;2022-11-15T00:36:43;97195.94;;;5.38;100.00
5284;BME280;15377;48.540;9.268;2022-11-15T00:39:09;97189.88;;;5.34;100.00
5284;BME280;15377;48.540;9.268;2022-11-15T00:41:34;97195.31;;;5.34;100.00
5284;BME280;15377;48.540;9.268;2022-11-15T00:43:59;97191.38;;;5.35;100.00
5284;BME280;15377;48.540;9.268;2022-11-15T00:46:25;97186.47;;;5.30;100.00
5284;BME280;15377;48.540;9.268;2022-11-15T00:48:50;97176.38;;;5.18;100.00
5284;BME280;15377;48.540;9.268;2022-11-15T00:51:16;97191.63;;;5.28;100.00
5284;BME280;15377;48.540;9.268;2022-11-15T00:53:41;97175.72;;;5.14;100.00
5284;BME280;15377;48.540;9.268;2022-11-15T00:56:06;97174.09;;;5.16;100.00
5284;BME280;15377;48.540;9.268;2022-11-15T00:58:32;97182.88;;;5.33;100.00
5284;BME280;15377;48.540;9.268;2022-11-15T01:01:09;97178.00;;;5.28;100.00
5284;BME280;15377;48.540;9.268;2022-11-15T01:03:35;97174.41;;;5.18;100.00
5284;BME280;15377;48.540;9.268;2022-11-15T01:06:01;97169.06;;;5.15;100.00
5284;BME280;15377;48.540;9.268;2022-11-15T01:08:26;97169.66;;;5.10;100.00
5284;BME280;15377;48.540;9.268;2022-11-15T01:10:52;97170.00;;;4.99;100.00
5284;BME280;15377;48.540;9.268;2022-11-15T01:13:17;97172.72;;;4.99;100.00
5284;BME280;15377;48.540;9.268;2022-11-15T01:15:43;97159.72;;;5.03;100.00
5284;BME280;15377;48.540;9.268;2022-11-15T01:18:09;97168.59;;;4.95;100.00
5284;BME280;15377;48.540;9.268;2022-11-15T01:20:34;97162.75;;;4.84;100.00
5284;BME280;15377;48.540;9.268;2022-11-15T01:23:04;97172.75;;;4.87;100.00
5284;BME280;15377;48.540;9.268;2022-11-15T01:25:29;97161.09;;;4.86;100.00
5284;BME280;15377;48.540;9.268;2022-11-15T01:27:54;97156.41;;;4.87;100.00
5284;BME280;15377;48.540;9.268;2022-11-15T01:30:19;97148.06;;;4.69;100.00
5284;BME280;15377;48.540;9.268;2022-11-15T01:32:45;97161.44;;;4.76;100.00
5284;BME280;15377;48.540;9.268;2022-11-15T01:35:10;97162.53;;;4.66;100.00
5284;BME280;15377;48.540;9.268;2022-11-15T01:37:35;97163.44;;;4.63;100.00
5284;BME280;15377;48.540;9.268;2022-11-15T01:40:01;97160.59;;;4.54;100.00
5284;BME280;15377;48.540;9.268;2022-11-15T01:42:26;97146.00;;;4.48;100.00
5284;BME280;15377;48.540;9.268;2022-11-15T01:44:52;97152.66;;;4.47;100.00
5284;BME280;15377;48.540;9.268;2022-11-15T01:47:26;97156.59;;;4.46;100.00
5284;BME280;15377;48.540;9.268;2022-11-15T01:50:05;97152.44;;;4.41;100.00
5284;BME280;15377;48.540;9.268;2022-11-15T01:52:33;97152.97;;;4.49;100.00
5284;BME280;15377;48.540;9.268;2022-11-15T01:55:22;97145.91;;;4.39;100.00
5284;BME280;15377;48.540;9.268;2022-11-15T01:57:53;97153.84;;;4.46;100.00
5284;BME280;15377;48.540;9.268;2022-11-15T02:00:20;97144.69;;;4.40;100.00
5284;BME280;15377;48.540;9.268;2022-11-15T02:02:46;97122.72;;;4.22;100.00
5284;BME280;15377;48.540;9.268;2022-11-15T02:05:11;97153.53;;;4.31;100.00
5284;BME280;15377;48.540;9.268;2022-11-15T02:07:37;97138.16;;;4.25;100.00
5284;BME280;15377;48.540;9.268;2022-11-15T02:10:16;97132.84;;;4.21;100.00
5284;BME280;15377;48.540;9.268;2022-11-15T02:12:42;97137.28;;;4.28;100.00
5284;BME280;15377;48.540;9.268;2022-11-15T02:15:08;97127.81;;;4.20;100.00
5284;BME280;15377;48.540;9.268;2022-11-15T02:20:30;97128.16;;;4.22;100.00
5284;BME280;15377;48.540;9.268;2022-11-15T02:33:53;97121.84;;;4.25;100.00
5284;BME280;15377;48.540;9.268;2022-11-15T02:39:03;97101.47;;;4.17;100.00
5284;BME280;15377;48.540;9.268;2022-11-15T02:41:40;97119.09;;;4.37;100.00
5284;BME280;15377;48.540;9.268;2022-11-15T02:44:21;97112.75;;;4.40;100.00
5284;BME280;15377;48.540;9.268;2022-11-15T02:46:58;97108.97;;;4.38;100.00
5284;BME280;15377;48.540;9.268;2022-11-15T02:49:39;97092.84;;;4.31;100.00
5284;BME280;15377;48.540;9.268;2022-11-15T02:52:06;97081.28;;;4.27;100.00
5284;BME280;15377;48.540;9.268;2022-11-15T02:54:33;97107.88;;;4.48;100.00
5284;BME280;15377;48.540;9.268;2022-11-15T02:57:02;97091.59;;;4.57;100.00
5284;BME280;15377;48.540;9.268;2022-11-15T03:10:22;97075.19;;;4.82;100.00
5284;BME280;15377;48.540;9.268;2022-11-15T03:12:55;97084.38;;;4.97;100.00
5284;BME280;15377;48.540;9.268;2022-11-15T03:15:26;97074.94;;;4.89;100.00
5284;BME280;15377;48.540;9.268;2022-11-15T03:18:01;97072.44;;;4.82;100.00
5284;BME280;15377;48.540;9.268;2022-11-15T03:20:27;97070.06;;;4.84;100.00
5284;BME280;15377;48.540;9.268;2022-11-15T03:22:56;97070.94;;;4.81;100.00
5284;BME280;15377;48.540;9.268;2022-11-15T03:25:26;97058.88;;;4.69;100.00
5284;BME280;15377;48.540;9.268;2022-11-15T03:27:56;97048.31;;;4.59;100.00
5284;BME280;15377;48.540;9.268;2022-11-15T03:30:22;97052.25;;;4.58;100.00
5284;BME280;15377;48.540;9.268;2022-11-15T03:32:54;97054.78;;;4.52;100.00
5284;BME280;15377;48.540;9.268;2022-11-15T03:35:27;97059.34;;;4.55;100.00
5284;BME280;15377;48.540;9.268;2022-11-15T03:40:33;97032.97;;;4.52;100.00
5284;BME280;15377;48.540;9.268;2022-11-15T03:45:51;97034.94;;;4.52;100.00
5284;BME280;15377;48.540;9.268;2022-11-15T03:48:34;97048.31;;;4.59;100.00
5284;BME280;15377;48.540;9.268;2022-11-15T03:51:03;97030.06;;;4.47;100.00
5284;BME280;15377;48.540;9.268;2022-11-15T03:53:29;97029.94;;;4.50;100.00
5284;BME280;15377;48.540;9.268;2022-11-15T03:55:56;97033.22;;;4.45;100.00
5284;BME280;15377;48.540;9.268;2022-11-15T03:58:21;97033.56;;;4.35;100.00
5284;BME280;15377;48.540;9.268;2022-11-15T04:00:46;97033.78;;;4.28;100.00
5284;BME280;15377;48.540;9.268;2022-11-15T04:03:12;97036.31;;;4.22;100.00
5284;BME280;15377;48.540;9.268;2022-11-15T04:05:37;97027.94;;;4.17;100.00
5284;BME280;15377;48.540;9.268;2022-11-15T04:08:03;97034.78;;;4.21;100.00
5284;BME280;15377;48.540;9.268;2022-11-15T04:10:28;97037.09;;;4.23;100.00
5284;BME280;15377;48.540;9.268;2022-11-15T04:12:53;97029.91;;;4.16;100.00
5284;BME280;15377;48.540;9.268;2022-11-15T04:15:21;97041.56;;;4.17;100.00
5284;BME280;15377;48.540;9.268;2022-11-15T04:17:49;97038.75;;;4.08;100.00
5284;BME280;15377;48.540;9.268;2022-11-15T04:20:23;97038.75;;;4.08;100.00
5284;BME280;15377;48.540;9.268;2022-11-15T04:23:15;97037.34;;;4.03;100.00
5284;BME280;15377;48.540;9.268;2022-11-15T04:26:11;97043.09;;;3.93;100.00
5284;BME280;15377;48.540;9.268;2022-11-15T04:28:38;97040.59;;;3.86;100.00
5284;BME280;15377;48.540;9.268;2022-11-15T04:31:23;97040.81;;;3.79;100.00
5284;BME280;15377;48.540;9.268;2022-11-15T04:33:48;97043.31;;;3.86;100.00
5284;BME280;15377;48.540;9.268;2022-11-15T04:36:14;97023.84;;;3.75;100.00
5284;BME280;15377;48.540;9.268;2022-11-15T04:38:58;97027.63;;;3.77;100.00
5284;BME280;15377;48.540;9.268;2022-11-15T04:41:23;97032.56;;;3.70;100.00
5284;BME280;15377;48.540;9.268;2022-11-15T04:43:48;97028.19;;;3.60;100.00
5284;BME280;15377;48.540;9.268;2022-11-15T04:46:14;97021.56;;;3.61;100.00
5284;BME280;15377;48.540;9.268;2022-11-15T04:48:39;97008.28;;;3.50;100.00
5284;BME280;15377;48.540;9.268;2022-11-15T04:51:04;97025.91;;;3.58;100.00
5284;BME280;15377;48.540;9.268;2022-11-15T04:53:30;97028.19;;;3.60;100.00
5284;BME280;15377;48.540;9.268;2022-11-15T04:55:55;97031.91;;;3.66;100.00
5284;BME280;15377;48.540;9.268;2022-11-15T04:58:20;97026.13;;;3.64;100.00
5284;BME280;15377;48.540;9.268;2022-11-15T05:00:46;97018.16;;;3.69;100.00
5284;BME280;15377;48.540;9.268;2022-11-15T05:03:11;97010.00;;;3.69;100.00
5284;BME280;15377;48.540;9.268;2022-11-15T05:05:57;97010.25;;;3.75;100.00
5284;BME280;15377;48.540;9.268;2022-11-15T05:08:23;96978.78;;;3.49;100.00
5284;BME280;15377;48.540;9.268;2022-11-15T05:10:48;97009.38;;;3.65;100.00
5284;BME280;15377;48.540;9.268;2022-11-15T05:13:13;97000.22;;;3.59;100.00
5284;BME280;15377;48.540;9.268;2022-11-15T05:15:39;97002.50;;;3.86;100.00
5284;BME280;15377;48.540;9.268;2022-11-15T05:18:04;96994.22;;;4.02;100.00
5284;BME280;15377;48.540;9.268;2022-11-15T05:20:29;96992.34;;;4.11;100.00
5284;BME280;15377;48.540;9.268;2022-11-15T05:22:55;97003.28;;;4.33;100.00
5284;BME280;15377;48.540;9.268;2022-11-15T05:25:21;97007.22;;;4.32;100.00
5284;BME280;15377;48.540;9.268;2022-11-15T05:27:47;97006.91;;;4.30;100.00
5284;BME280;15377;48.540;9.268;2022-11-15T05:30:12;96988.94;;;4.20;100.00
5284;BME280;15377;48.540;9.268;2022-11-15T05:32:37;96995.59;;;4.19;100.00
5284;BME280;15377;48.540;9.268;2022-11-15T05:35:06;96979.41;;;4.03;100.00
5284;BME280;15377;48.540;9.268;2022-11-15T05:37:34;96982.13;;;4.03;100.00
5284;BME280;15377;48.540;9.268;2022-11-15T05:39:59;97003.13;;;4.15;100.00
5284;BME280;15377;48.540;9.268;2022-11-15T05:42:26;97005.50;;;4.13;100.00
5284;BME280;15377;48.540;9.268;2022-11-15T05:44:52;96995.81;;;4.12;100.00
5284;BME280;15377;48.540;9.268;2022-11-15T05:47:21;96980.06;;;4.07;100.00
5284;BME280;15377;48.540;9.268;2022-11-15T05:49:50;96987.88;;;4.17;100.00
5284;BME280;15377;48.540;9.268;2022-11-15T05:52:20;96967.41;;;4.00;100.00
5284;BME280;15377;48.540;9.268;2022-11-15T05:54:47;96987.88;;;4.05;100.00
5284;BME280;15377;48.540;9.268;2022-11-15T05:57:13;96969.50;;;3.96;100.00
5284;BME280;15377;48.540;9.268;2022-11-15T05:59:39;96981.13;;;3.97;100.00
5284;BME280;15377;48.540;9.268;2022-11-15T06:02:06;96988.91;;;3.86;100.00
5284;BME280;15377;48.540;9.268;2022-11-15T06:04:31;97003.16;;;3.90;100.00
5284;BME280;15377;48.540;9.268;2022-11-15T06:06:58;96996.19;;;3.89;100.00
5284;BME280;15377;48.540;9.268;2022-11-15T06:09:23;96986.50;;;3.88;100.00
5284;BME280;15377;48.540;9.268;2022-11-15T06:11:48;96994.03;;;3.84;100.00
5284;BME280;15377;48.540;9.268;2022-11-15T06:14:14;96986.50;;;3.75;100.00
5284;BME280;15377;48.540;9.268;2022-11-15T06:16:39;96994.13;;;3.80;100.00
5284;BME280;15377;48.540;9.268;2022-11-15T06:19:06;96992.94;;;3.81;100.00
5284;BME280;15377;48.540;9.268;2022-11-15T06:21:31;96997.72;;;3.77;100.00
5284;BME280;15377;48.540;9.268;2022-11-15T06:23:57;96994.34;;;3.73;100.00
5284;BME280;15377;48.540;9.268;2022-11-15T06:26:22;96999.13;;;3.69;100.00
5284;BME280;15377;48.540;9.268;2022-11-15T06:28:47;97002.84;;;3.63;100.00
5284;BME280;15377;48.540;9.268;2022-11-15T06:31:13;96997.97;;;3.58;100.00
5284;BME280;15377;48.540;9.268;2022-11-15T06:33:39;97008.84;;;3.58;100.00
5284;BME280;15377;48.540;9.268;2022-11-15T06:36:07;96996.09;;;3.55;100.00
5284;BME280;15377;48.540;9.268;2022-11-15T06:38:33;96999.38;;;3.62;100.00
5284;BME280;15377;48.540;9.268;2022-11-15T06:41:06;96997.09;;;3.61;100.00
5284;BME280;15377;48.540;9.268;2022-11-15T06:43:32;96999.38;;;3.62;100.00
5284;BME280;15377;48.540;9.268;2022-11-15T06:45:59;97003.72;;;3.72;100.00
5284;BME280;15377;48.540;9.268;2022-11-15T06:48:24;96994.88;;;3.81;100.00
5284;BME280;15377;48.540;9.268;2022-11-15T06:50:58;96986.28;;;3.82;100.00
5284;BME280;15377;48.540;9.268;2022-11-15T06:53:24;96992.91;;;3.94;100.00
5284;BME280;15377;48.540;9.268;2022-11-15T06:55:50;96990.94;;;4.07;100.00
5284;BME280;15377;48.540;9.268;2022-11-15T06:58:16;96989.94;;;4.13;100.00
5284;BME280;15377;48.540;9.268;2022-11-15T07:00:41;96999.47;;;4.30;100.00
5284;BME280;15377;48.540;9.268;2022-11-15T07:03:07;96989.25;;;4.34;100.00
5284;BME280;15377;48.540;9.268;2022-11-15T07:05:32;96991.72;;;4.41;100.00
5284;BME280;15377;48.540;9.268;2022-11-15T07:07:58;96997.91;;;4.42;100.00
5284;BME280;15377;48.540;9.268;2022-11-15T07:10:24;96988.63;;;4.52;100.00
5284;BME280;15377;48.540;9.268;2022-11-15T07:12:54;96989.69;;;4.54;100.00
5284;BME280;15377;48.540;9.268;2022-11-15T07:15:22;97002.97;;;4.65;100.00
5284;BME280;15377;48.540;9.268;2022-11-15T07:17:47;96998.22;;;4.78;100.00
5284;BME280;15377;48.540;9.268;2022-11-15T07:20:13;96991.81;;;4.93;100.00
5284;BME280;15377;48.540;9.268;2022-11-15T07:22:40;96993.25;;;5.07;100.00
5284;BME280;15377;48.540;9.268;2022-11-15T07:25:05;96996.38;;;5.18;100.00
5284;BME280;15377;48.540;9.268;2022-11-15T07:27:31;96983.63;;;5.15;100.00
5284;BME280;15377;48.540;9.268;2022-11-15T07:29:57;97002.19;;;5.29;100.00
5284;BME280;15377;48.540;9.268;2022-11-15T07:32:22;96980.38;;;5.29;100.00
5284;BME280;15377;48.540;9.268;2022-11-15T07:34:48;96981.63;;;5.37;100.00
5284;BME280;15377;48.540;9.268;2022-11-15T07:37:13;96996.69;;;5.50;100.00
5284;BME280;15377;48.540;9.268;2022-11-15T07:39:38;96997.50;;;5.60;100.00
5284;BME280;15377;48.540;9.268;2022-11-15T07:42:04;96996.25;;;5.52;100.00
5284;BME280;15377;48.540;9.268;2022-11-15T07:44:48;96992.69;;;5.64;100.00
5284;BME280;15377;48.540;9.268;2022-11-15T07:47:13;96984.81;;;5.75;100.00
5284;BME280;15377;48.540;9.268;2022-11-15T07:49:38;96992.50;;;5.98;100.00
5284;BME280;15377;48.540;9.268;2022-11-15T07:52:04;96979.81;;;6.22;100.00
5284;BME280;15377;48.540;9.268;2022-11-15T07:54:29;96976.50;;;6.45;100.00
5284;BME280;15377;48.540;9.268;2022-11-15T07:56:54;96979.09;;;6.75;100.00
5284;BME280;15377;48.540;9.268;2022-11-15T07:59:20;96972.25;;;6.89;100.00
5284;BME280;15377;48.540;9.268;2022-11-15T08:01:45;96973.44;;;7.14;100.00
5284;BME280;15377;48.540;9.268;2022-11-15T08:04:11;96970.63;;;7.41;100.00
5284;BME280;15377;48.540;9.268;2022-11-15T08:06:37;96949.00;;;7.52;100.00
5284;BME280;15377;48.540;9.268;2022-11-15T08:09:02;96966.28;;;7.67;100.00
5284;BME280;15377;48.540;9.268;2022-11-15T08:11:28;96956.75;;;7.86;100.00
5284;BME280;15377;48.540;9.268;2022-11-15T08:13:53;96963.75;;;7.87;100.00
5284;BME280;15377;48.540;9.268;2022-11-15T08:16:18;96941.28;;;7.74;100.00
5284;BME280;15377;48.540;9.268;2022-11-15T08:18:44;96953.41;;;7.82;100.00
5284;BME280;15377;48.540;9.268;2022-11-15T08:21:10;96959.72;;;7.97;100.00
5284;BME280;15377;48.540;9.268;2022-11-15T08:23:38;96950.59;;;8.00;100.00
5284;BME280;15377;48.540;9.268;2022-11-15T08:26:04;96961.38;;;8.04;100.00
5284;BME280;15377;48.540;9.268;2022-11-15T08:28:30;96948.75;;;8.06;100.00
5284;BME280;15377;48.540;9.268;2022-11-15T08:30:56;96950.81;;;8.11;100.00
5284;BME280;15377;48.540;9.268;2022-11-15T08:33:21;96963.13;;;8.16;100.00
5284;BME280;15377;48.540;9.268;2022-11-15T08:35:48;96951.28;;;8.10;100.00
5284;BME280;15377;48.540;9.268;2022-11-15T08:38:13;96951.50;;;7.97;100.00
5284;BME280;15377;48.540;9.268;2022-11-15T08:40:39;96958.25;;;7.87;100.00
5284;BME280;15377;48.540;9.268;2022-11-15T08:43:05;96958.88;;;7.91;100.00
5284;BME280;15377;48.540;9.268;2022-11-15T08:45:31;96969.97;;;8.20;100.00
5284;BME280;15377;48.540;9.268;2022-11-15T08:48:02;96962.28;;;8.33;100.00
5284;BME280;15377;48.540;9.268;2022-11-15T08:50:28;96952.94;;;8.63;100.00
5284;BME280;15377;48.540;9.268;2022-11-15T08:52:53;96960.28;;;8.95;100.00
5284;BME280;15377;48.540;9.268;2022-11-15T08:55:19;96964.72;;;9.07;100.00
5284;BME280;15377;48.540;9.268;2022-11-15T08:57:44;96964.34;;;9.14;100.00
5284;BME280;15377;48.540;9.268;2022-11-15T09:00:10;96967.19;;;9.05;100.00
5284;BME280;15377;48.540;9.268;2022-11-15T09:02:38;96970.13;;;9.45;100.00
5284;BME280;15377;48.540;9.268;2022-11-15T09:05:04;96971.16;;;9.62;100.00
5284;BME280;15377;48.540;9.268;2022-11-15T09:07:30;96972.50;;;9.52;100.00
5284;BME280;15377;48.540;9.268;2022-11-15T09:09:58;96976.09;;;9.58;100.00
5284;BME280;15377;48.540;9.268;2022-11-15T09:12:24;96967.59;;;9.56;100.00
5284;BME280;15377;48.540;9.268;2022-11-15T09:14:49;96965.09;;;9.58;100.00
5284;BME280;15377;48.540;9.268;2022-11-15T09:17:15;96966.97;;;9.67;100.00
5284;BME280;15377;48.540;9.268;2022-11-15T09:19:40;96966.59;;;9.88;100.00
5284;BME280;15377;48.540;9.268;2022-11-15T09:22:07;96951.47;;;9.98;100.00
5284;BME280;15377;48.540;9.268;2022-11-15T09:24:33;96971.19;;;10.11;100.00
5284;BME280;15377;48.540;9.268;2022-11-15T09:26:58;96957.59;;;10.22;100.00
5284;BME280;15377;48.540;9.268;2022-11-15T09:29:23;96959.66;;;10.27;100.00
5284;BME280;15377;48.540;9.268;2022-11-15T09:31:51;96959.81;;;10.38;100.00
5284;BME280;15377;48.540;9.268;2022-11-15T09:34:17;96946.72;;;10.33;100.00
5284;BME280;15377;48.540;9.268;2022-11-15T09:36:42;96957.59;;;10.42;100.00
5284;BME280;15377;48.540;9.268;2022-11-15T09:39:08;96963.31;;;10.39;100.00
5284;BME280;15377;48.540;9.268;2022-11-15T09:44:24;96966.38;;;10.86;100.00
5284;BME280;15377;48.540;9.268;2022-11-15T09:47:16;96959.06;;;11.03;100.00
5284;BME280;15377;48.540;9.268;2022-11-15T09:49:52;96967.94;;;11.38;100.00
5284;BME280;15377;48.540;9.268;2022-11-15T09:52:19;96965.00;;;11.47;100.00
5284;BME280;15377;48.540;9.268;2022-11-15T09:54:48;96961.66;;;11.63;100.00
5284;BME280;15377;48.540;9.268;2022-11-15T10:02:18;96955.16;;;12.02;100.00
5284;BME280;15377;48.540;9.268;2022-11-15T10:04:48;96936.97;;;12.16;100.00
5284;BME280;15377;48.540;9.268;2022-11-15T10:07:25;96943.38;;;12.44;100.00
5284;BME280;15377;48.540;9.268;2022-11-15T10:10:16;96943.00;;;12.78;100.00
5284;BME280;15377;48.540;9.268;2022-11-15T10:12:48;96943.13;;;13.11;100.00
5284;BME280;15377;48.540;9.268;2022-11-15T10:15:16;96951.41;;;13.17;100.00
5284;BME280;15377;48.540;9.268;2022-11-15T10:18:08;96946.19;;;13.35;100.00
5284;BME280;15377;48.540;9.268;2022-11-15T10:20:55;96944.94;;;13.42;100.00
5284;BME280;15377;48.540;9.268;2022-11-15T10:23:23;96951.50;;;13.50;100.00
5284;BME280;15377;48.540;9.268;2022-11-15T10:25:51;96935.38;;;13.54;100.00
5284;BME280;15377;48.540;9.268;2022-11-15T10:28:22;96934.38;;;13.57;100.00
5284;BME280;15377;48.540;9.268;2022-11-15T10:30:53;96932.88;;;13.67;100.00
5284;BME280;15377;48.540;9.268;2022-11-15T10:38:33;96912.00;;;13.60;100.00
5284;BME280;15377;48.540;9.268;2022-11-15T10:41:07;96919.31;;;13.58;100.00
5284;BME280;15377;48.540;9.268;2022-11-15T10:43:32;96922.09;;;13.58;100.00
5284;BME280;15377;48.540;9.268;2022-11-15T10:46:18;96917.28;;;13.64;100.00
5284;BME280;15377;48.540;9.268;2022-11-15T10:48:44;96890.91;;;13.52;100.00
5284;BME280;15377;48.540;9.268;2022-11-15T10:51:20;96908.25;;;13.47;100.00
5284;BME280;15377;48.540;9.268;2022-11-15T10:53:48;96911.78;;;13.47;100.00
5284;BME280;15377;48.540;9.268;2022-11-15T10:56:14;96906.25;;;13.53;100.00
5284;BME280;15377;48.540;9.268;2022-11-15T11:03:40;96893.44;;;13.28;100.00
5284;BME280;15377;48.540;9.268;2022-11-15T11:06:17;96901.19;;;13.13;100.00
5284;BME280;15377;48.540;9.268;2022-11-15T11:09:04;96898.59;;;12.82;100.00
5284;BME280;15377;48.540;9.268;2022-11-15T11:11:47;96896.56;;;12.77;100.00
5284;BME280;15377;48.540;9.268;2022-11-15T11:14:20;96894.03;;;12.68;100.00
5284;BME280;15377;48.540;9.268;2022-11-15T11:30:35;96865.47;;;12.82;100.00
5284;BME280;15377;48.540;9.268;2022-11-15T11:33:22;96877.56;;;13.01;100.00
5284;BME280;15377;48.540;9.268;2022-11-15T11:42:03;96871.81;;;13.15;100.00
5284;BME280;15377;48.540;9.268;2022-11-15T11:47:23;96849.47;;;13.24;100.00
5284;BME280;15377;48.540;9.268;2022-11-15T11:49:52;96839.16;;;13.36;100.00
5284;BME280;15377;48.540;9.268;2022-11-15T11:52:37;96857.72;;;13.68;100.00
5284;BME280;15377;48.540;9.268;2022-11-15T12:00:23;96849.31;;;14.18;100.00
5284;BME280;15377;48.540;9.268;2022-11-15T12:03:12;96823.44;;;14.04;100.00
5284;BME280;15377;48.540;9.268;2022-11-15T12:05:42;96844.78;;;14.15;100.00
5284;BME280;15377;48.540;9.268;2022-11-15T12:08:22;96836.03;;;14.00;100.00
5284;BME280;15377;48.540;9.268;2022-11-15T12:11:02;96844.38;;;13.89;100.00
5284;BME280;15377;48.540;9.268;2022-11-15T12:13:30;96836.06;;;13.89;100.00
5284;BME280;15377;48.540;9.268;2022-11-15T12:16:05;96822.00;;;13.81;100.00
5284;BME280;15377;48.540;9.268;2022-11-15T12:18:32;96799.41;;;13.77;100.00
5284;BME280;15377;48.540;9.268;2022-11-15T12:21:03;96822.66;;;14.04;100.00
5284;BME280;15377;48.540;9.268;2022-11-15T12:23:46;96822.16;;;14.11;100.00
5284;BME280;15377;48.540;9.268;2022-11-15T12:26:20;96809.84;;;14.06;100.00
5284;BME280;15377;48.540;9.268;2022-11-15T12:29:09;96815.13;;;14.10;100.00
5284;BME280;15377;48.540;9.268;2022-11-15T12:31:40;96822.66;;;14.04;100.00
5284;BME280;15377;48.540;9.268;2022-11-15T12:36:41;96823.69;;;14.01;100.00
5284;BME280;15377;48.540;9.268;2022-11-15T12:39:11;96821.69;;;13.96;100.00
5284;BME280;15377;48.540;9.268;2022-11-15T12:41:43;96822.25;;;13.89;100.00
5284;BME280;15377;48.540;9.268;2022-11-15T13:02:26;96799.06;;;14.60;100.00
5284;BME280;15377;48.540;9.268;2022-11-15T13:13:00;96785.41;;;14.67;100.00
5284;BME280;15377;48.540;9.268;2022-11-15T13:18:31;96768.78;;;14.67;100.00
5284;BME280;15377;48.540;9.268;2022-11-15T13:20:57;96763.47;;;14.69;100.00
5284;BME280;15377;48.540;9.268;2022-11-15T13:23:24;96764.38;;;14.82;100.00
5284;BME280;15377;48.540;9.268;2022-11-15T13:28:44;96761.78;;;14.95;100.00
5284;BME280;15377;48.540;9.268;2022-11-15T13:33:57;96753.75;;;14.92;100.00
5284;BME280;15377;48.540;9.268;2022-11-15T13:36:31;96729.38;;;14.85;100.00
5284;BME280;15377;48.540;9.268;2022-11-15T13:39:00;96747.47;;;14.91;100.00
5284;BME280;15377;48.540;9.268;2022-11-15T13:41:29;96745.25;;;14.84;100.00
5284;BME280;15377;48.540;9.268;2022-11-15T13:43:56;96737.53;;;14.72;100.00
5284;BME280;15377;48.540;9.268;2022-11-15T13:46:27;96738.44;;;14.51;100.00
5284;BME280;15377;48.540;9.268;2022-11-15T13:51:25;96721.16;;;13.88;100.00
5284;BME280;15377;48.540;9.268;2022-11-15T13:57:02;96702.22;;;13.46;100.00
5284;BME280;15377;48.540;9.268;2022-11-15T13:59:33;96707.25;;;13.36;100.00
5284;BME280;15377;48.540;9.268;2022-11-15T14:02:03;96708.31;;;13.28;100.00
5284;BME280;15377;48.540;9.268;2022-11-15T14:04:38;96699.25;;;13.22;100.00
5284;BME280;15377;48.540;9.268;2022-11-15T14:07:04;96694.75;;;13.19;100.00
5284;BME280;15377;48.540;9.268;2022-11-15T14:12:02;96683.75;;;12.97;100.00
5284;BME280;15377;48.540;9.268;2022-11-15T14:14:45;96668.44;;;12.96;100.00
5284;BME280;15377;48.540;9.268;2022-11-15T14:17:41;96672.69;;;12.97;100.00
5284;BME280;15377;48.540;9.268;2022-11-15T14:23:28;96653.13;;;12.73;100.00
5284;BME280;15377;48.540;9.268;2022-11-15T14:25:55;96646.09;;;12.61;100.00
5284;BME280;15377;48.540;9.268;2022-11-15T14:30:51;96644.31;;;12.74;100.00
5284;BME280;15377;48.540;9.268;2022-11-15T14:33:18;96639.53;;;12.86;100.00
5284;BME280;15377;48.540;9.268;2022-11-15T14:35:44;96635.28;;;12.85;100.00
5284;BME280;15377;48.540;9.268;2022-11-15T14:38:09;96633.78;;;12.84;100.00
5284;BME280;15377;48.540;9.268;2022-11-15T14:40:35;96622.00;;;12.67;100.00
5284;BME280;15377;48.540;9.268;2022-11-15T14:43:00;96643.59;;;12.74;100.00
5284;BME280;15377;48.540;9.268;2022-11-15T14:45:27;96636.56;;;12.67;100.00
5284;BME280;15377;48.540;9.268;2022-11-15T14:47:52;96640.59;;;12.50;100.00
5284;BME280;15377;48.540;9.268;2022-11-15T14:50:20;96634.31;;;12.44;100.00
5284;BME280;15377;48.540;9.268;2022-11-15T14:52:46;96628.31;;;12.45;100.00
5284;BME280;15377;48.540;9.268;2022-11-15T14:55:20;96634.84;;;12.48;100.00
5284;BME280;15377;48.540;9.268;2022-11-15T14:57:46;96631.56;;;12.33;100.00
5284;BME280;15377;48.540;9.268;2022-11-15T15:00:12;96623.03;;;12.20;100.00
5284;BME280;15377;48.540;9.268;2022-11-15T15:02:39;96622.03;;;12.12;100.00
5284;BME280;15377;48.540;9.268;2022-11-15T15:05:34;96621.25;;;12.11;100.00
5284;BME280;15377;48.540;9.268;2022-11-15T15:08:00;96614.00;;;12.08;100.00
5284;BME280;15377;48.540;9.268;2022-11-15T15:10:30;96619.50;;;12.03;100.00
5284;BME280;15377;48.540;9.268;2022-11-15T15:12:56;96600.94;;;11.87;100.00
5284;BME280;15377;48.540;9.268;2022-11-15T15:15:26;96599.41;;;11.75;100.00
5284;BME280;15377;48.540;9.268;2022-11-15T15:17:54;96575.78;;;11.52;100.00
5284;BME280;15377;48.540;9.268;2022-11-15T15:20:20;96577.50;;;11.44;100.00
5284;BME280;15377;48.540;9.268;2022-11-15T15:22:45;96575.50;;;11.33;100.00
5284;BME280;15377;48.540;9.268;2022-11-15T15:25:34;96570.19;;;11.24;100.00